Airfield :
LOGIN :

Register | Disclaimer

   EN    FR    IT 

 










Legend :    VFR   Marginal VFR   IFR   Intensive IFR   Very Intensive IFR
Visi :
Ceiling :
>= 8 km
>= 3000ft
5 to 8 km
1000 to 3000 ft
1500m to 5 km
500 to 1000 ft
800 to 1500m
200 to 500 ft
< 800m
< 200 ft
Symbols :   Thunderstorms  Fog  Heavy snow  Heavy precipitations  Wind > 20 kt
SIGMETs :     Misc.  Thunderstorms  Icing  Turbulence  Mountain Waves  Volcanic Ashes






- Airport Elevation : 357 ft
- IATA code : TUF


LFOT - Tours

CURRENT METAR :
  • 242330Z AUTO 06003KT 010V100 4000 BR FEW002 02/02 Q1021 TEMPO 0200 FG VV///

EXPIRED METARs :
  • 242300Z AUTO 08006KT 3300 BR OVC002 02/02 Q1021 TEMPO 0200 FG VV///
  • 242230Z AUTO 07006KT 3300 BR OVC002 03/03 Q1021 TEMPO 0200 FG VV///
  • 242200Z AUTO 06005KT 1600 BR VV/// 03/03 Q1021 TEMPO 0200 FG
  • 242130Z AUTO 07007KT 0700 0600 R20/0900N FG VV/// 03/03 Q1021 TEMPO 0200 FG
  • 242100Z AUTO 07004KT 040V100 0900 0700 R20/1300N FG VV/// 03/03 Q1021 TEMPO 0200 FG

TAF TAF LFOT
Valid from the 25 at 00:00 until the 26 at 00:00 UTC


242300Z 2500/2524 09005KT 3000 BR BKN002
PROB40
TEMPO 2500/2512 0200 FG VV///
BECMG 2513/2515 6000 NSW BKN012
TEMPO 2512/2518 BKN008
BECMG 2518/2520 3000 BR BKN005
PROB40
TEMPO 2518/2524 0400 FG VV///



MET'MAP, your aeronautical weather chart ! - Copyright ORBIFLY December 2007 - Disclaimer

ORBIFLY MET'MAP TEAM :

Programming & Development : Alexandra Zaïnal
Concept & original design : Baudouin d'Aumeries
Assistance for programming : Marc-Olivier Méhu
Technical & hardware support : Manuel Goepfert

Contact : metmap@orbifly.com




SOURCES & CREDITS :

   NOAA